Seagoville's Hourly Summary for Sunday, July 8, 2018
Hour Temp
(f)
RH
(%)
Solar Rad.
(MJ/m2)
Rainfall
(in)
Wind
(mph)
7/8/2018 12:00 AM 79 69 0 0 1.56
7/8/2018 1:00 AM 77 78 0 0 0.19
7/8/2018 2:00 AM 76 81 0 0 0.54
7/8/2018 3:00 AM 75 84 0 0 0.08
7/8/2018 4:00 AM 74 86 0 0 0
7/8/2018 5:00 AM 74 90 0 0 0.22
7/8/2018 6:00 AM 73 91 0.05 0 0.16
7/8/2018 7:00 AM 75 82 0.4 0 1.25
7/8/2018 8:00 AM 80 66 1.09 0 3.15
7/8/2018 9:00 AM 83 61 1.78 0 4.77
7/8/2018 10:00 AM 85 57 1.95 0 3.83
7/8/2018 11:00 AM 87 50 2.06 0 4.36
7/8/2018 12:00 PM 89 46 2.13 0 4.46
7/8/2018 1:00 PM 89 40 1.74 0 5.11
7/8/2018 2:00 PM 91 39 1.81 0 7.24
7/8/2018 3:00 PM 86 37 1.12 0 8.08
7/8/2018 4:00 PM 82 62 1.24 0 6.02
7/8/2018 5:00 PM 84 59 1.22 0 6.09
7/8/2018 6:00 PM 84 62 0.84 0 5.85
7/8/2018 7:00 PM 85 60 0.69 0 5.28
7/8/2018 8:00 PM 82 64 0.06 0 2.73
7/8/2018 9:00 PM 79 70 0 0 1.57
7/8/2018 10:00 PM 77 74 0 0 0.46
7/8/2018 11:00 PM 76 79 0 0 0.53
Data Summary 80 66 18.18 0.00 3.06